Time;durP1;ratioP1;P1;durP2;ratioP2;P2;SDS_P1;SDS_P2;PMS_P1;PMS_P2;Temp;Humidity;BMP_temperature;BMP_pressure;BME280_temperature;BME280_humidity;BME280_pressure;Samples;Min_cycle;Max_cycle;Signal;HPM_P1;HPM_P2
2023/05/13 00:01:04;;;;;;;7.30;4.63;;;10.00;99.90;;;;;;5059210;28;20558;-66
2023/05/13 00:03:30;;;;;;;;;;;9.90;99.90;;;;;;5061207;28;20571;-66
2023/05/13 00:05:55;;;;;;;14.95;4.82;;;10.00;99.90;;;;;;5060287;28;19924;-66
2023/05/13 00:08:21;;;;;;;13.43;4.95;;;10.00;99.90;;;;;;5061099;28;20464;-66
2023/05/13 00:10:49;;;;;;;;;;;9.90;99.90;;;;;;5059811;28;20037;-68
2023/05/13 00:13:16;;;;;;;11.27;4.03;;;9.90;99.90;;;;;;5059088;28;19920;-66
2023/05/13 00:15:41;;;;;;;10.60;4.53;;;9.80;99.90;;;;;;5060381;28;20128;-66
2023/05/13 00:18:07;;;;;;;;;;;9.80;99.90;;;;;;5051145;28;20116;-66
2023/05/13 00:20:33;;;;;;;13.93;4.72;;;9.80;99.90;;;;;;5054024;28;20399;-66
2023/05/13 00:22:58;;;;;;;;;;;9.80;99.90;;;;;;5049060;28;20044;-66
2023/05/13 00:25:24;;;;;;;7.60;3.97;;;9.70;99.90;;;;;;5045642;28;19917;-66
2023/05/13 00:27:51;;;;;;;7.13;4.15;;;9.60;99.90;;;;;;5047486;28;20503;-66
2023/05/13 00:30:16;;;;;;;8.10;4.78;;;9.60;99.90;;;;;;5044016;28;20113;-66
2023/05/13 00:32:42;;;;;;;;;;;9.60;99.90;;;;;;5047456;28;20042;-66
2023/05/13 00:35:08;;;;;;;11.40;4.43;;;9.60;99.90;;;;;;5045514;28;19971;-66
2023/05/13 00:37:33;;;;;;;8.50;4.68;;;9.60;99.90;;;;;;5045705;28;20646;-66
2023/05/13 00:39:59;;;;;;;;;;;9.50;99.90;;;;;;5046693;28;20048;-66
2023/05/13 00:42:25;;;;;;;12.38;4.60;;;9.50;99.90;;;;;;5046226;28;19916;-66
2023/05/13 00:44:50;;;;;;;;;;;9.50;99.90;;;;;;5043127;28;20038;-66
2023/05/13 00:47:16;;;;;;;9.13;4.47;;;9.50;99.90;;;;;;5046770;28;19921;-66
2023/05/13 00:49:42;;;;;;;;;;;9.50;99.90;;;;;;5054462;28;20800;-66
2023/05/13 00:52:07;;;;;;;6.88;3.92;;;9.40;99.90;;;;;;5053584;28;19924;-66
2023/05/13 00:54:33;;;;;;;;;;;9.40;99.90;;;;;;5047356;28;20033;-66
2023/05/13 00:56:59;;;;;;;6.97;4.45;;;9.40;99.90;;;;;;5046518;28;19943;-66
2023/05/13 00:59:29;;;;;;;13.68;4.63;;;9.40;99.90;;;;;;5046714;28;20044;-66
2023/05/13 01:02:12;;;;;;;7.50;4.72;;;9.30;99.90;;;;;;5058681;28;20036;-66
2023/05/13 01:04:40;;;;;;;10.95;4.63;;;9.30;99.90;;;;;;5065204;28;20044;-67
2023/05/13 01:07:30;;;;;;;22.98;5.43;;;9.30;99.90;;;;;;5068857;28;20570;-66
2023/05/13 01:10:26;;;;;;;8.00;5.13;;;9.20;99.90;;;;;;5080100;28;20289;-66
2023/05/13 01:13:02;;;;;;;7.68;4.57;;;9.20;99.90;;;;;;5063944;28;20048;-66
2023/05/13 01:15:30;;;;;;;6.60;4.43;;;9.20;99.90;;;;;;5089922;28;20540;-66
2023/05/13 01:18:10;;;;;;;10.50;5.15;;;9.20;99.90;;;;;;5066583;28;20492;-66
2023/05/13 01:20:39;;;;;;;14.77;5.05;;;9.20;99.90;;;;;;5065797;28;20051;-66
2023/05/13 01:23:05;;;;;;;10.80;4.53;;;9.10;99.90;;;;;;5066542;28;20032;-66
2023/05/13 01:25:31;;;;;;;;;;;9.10;99.90;;;;;;5064957;28;20048;-65
2023/05/13 01:27:57;;;;;;;6.13;3.92;;;9.10;99.90;;;;;;5065714;28;19995;-65
2023/05/13 01:30:22;;;;;;;;;;;9.10;99.90;;;;;;5064530;28;20040;-65
2023/05/13 01:32:50;;;;;;;5.10;4.10;;;9.10;99.90;;;;;;5066176;28;20319;-65
2023/05/13 01:35:16;;;;;;;14.25;5.18;;;9.00;99.90;;;;;;5064828;28;20036;-65
2023/05/13 01:37:43;;;;;;;10.95;4.93;;;9.00;99.90;;;;;;5065924;28;20040;-66
2023/05/13 01:40:09;;;;;;;8.88;5.10;;;9.00;99.90;;;;;;5065964;28;20044;-65
2023/05/13 01:42:35;;;;;;;17.70;5.15;;;9.00;99.90;;;;;;5057060;28;20045;-65
2023/05/13 01:45:01;;;;;;;;;;;8.90;99.90;;;;;;5062077;28;20477;-65
2023/05/13 01:47:27;;;;;;;11.05;4.57;;;8.90;99.90;;;;;;5065906;28;19971;-65
2023/05/13 01:49:52;;;;;;;;;;;8.90;99.90;;;;;;5066396;28;20032;-65
2023/05/13 01:52:18;;;;;;;11.02;4.55;;;8.80;99.90;;;;;;5064946;28;19916;-65
2023/05/13 01:54:43;;;;;;;;;;;8.80;99.90;;;;;;5064222;28;20678;-65
2023/05/13 01:57:09;;;;;;;10.30;4.13;;;8.80;99.90;;;;;;5064078;28;19916;-65
2023/05/13 01:59:34;;;;;;;;;;;8.70;99.90;;;;;;5066639;28;20739;-65
2023/05/13 02:02:00;;;;;;;14.98;4.90;;;8.70;99.90;;;;;;5062251;28;19947;-66
2023/05/13 02:04:26;;;;;;;7.28;4.43;;;8.70;99.90;;;;;;5062828;28;20672;-65
2023/05/13 02:06:51;;;;;;;;;;;8.60;99.90;;;;;;5065268;28;20043;-65
2023/05/13 02:09:17;;;;;;;7.30;5.07;;;8.60;99.90;;;;;;5065531;28;19962;-65
2023/05/13 02:11:44;;;;;;;;;;;8.60;99.90;;;;;;5065171;28;20771;-65
2023/05/13 02:14:09;;;;;;;11.00;5.00;;;8.60;99.90;;;;;;5064984;28;19923;-66
2023/05/13 02:16:35;;;;;;;;;;;8.50;99.90;;;;;;5065507;28;20049;-65
2023/05/13 02:19:00;;;;;;;10.85;4.50;;;8.50;99.90;;;;;;5064932;28;20007;-65
2023/05/13 02:21:26;;;;;;;;;;;8.50;99.90;;;;;;5065662;28;20039;-65
2023/05/13 02:23:51;;;;;;;8.07;4.93;;;8.50;99.90;;;;;;5064967;28;19927;-65
2023/05/13 02:26:17;;;;;;;11.68;4.80;;;8.50;99.90;;;;;;5064781;28;20072;-66
2023/05/13 02:28:43;;;;;;;;;;;8.40;99.90;;;;;;5066239;28;20039;-66
2023/05/13 02:31:08;;;;;;;9.27;4.28;;;8.50;99.90;;;;;;5063982;28;19954;-65
2023/05/13 02:33:35;;;;;;;6.28;4.95;;;8.50;99.90;;;;;;5064437;28;20055;-66
2023/05/13 02:36:00;;;;;;;6.85;4.68;;;8.40;99.90;;;;;;5063800;28;20047;-65
2023/05/13 02:38:26;;;;;;;;;;;8.30;99.90;;;;;;5065653;28;20037;-65
2023/05/13 02:40:51;;;;;;;7.22;4.30;;;8.30;99.90;;;;;;5064180;28;19976;-66
2023/05/13 02:43:18;;;;;;;7.95;5.07;;;8.40;99.90;;;;;;5064890;28;20512;-65
2023/05/13 02:45:45;;;;;;;9.75;4.82;;;8.30;99.90;;;;;;5060660;28;20683;-66
2023/05/13 02:48:10;;;;;;;9.73;5.53;;;8.30;99.90;;;;;;5064939;28;20041;-65
2023/05/13 02:50:36;;;;;;;;;;;8.30;99.90;;;;;;5065408;28;20587;-65
2023/05/13 02:53:02;;;;;;;13.55;4.80;;;8.20;99.90;;;;;;5065108;28;19920;-65
2023/05/13 02:55:27;;;;;;;8.27;5.03;;;8.20;99.90;;;;;;5064667;28;20066;-65
2023/05/13 02:57:53;;;;;;;;;;;8.30;99.90;;;;;;5065572;28;20104;-66
2023/05/13 03:00:18;;;;;;;8.10;4.78;;;8.20;99.90;;;;;;5063018;28;19921;-65
2023/05/13 03:02:44;;;;;;;;;;;8.20;99.90;;;;;;5065595;28;20517;-65
2023/05/13 03:05:10;;;;;;;8.38;4.95;;;8.20;99.90;;;;;;5064291;28;19920;-65
2023/05/13 03:07:35;;;;;;;;;;;8.20;99.90;;;;;;5064388;28;20040;-65
2023/05/13 03:10:01;;;;;;;10.05;4.90;;;8.20;99.90;;;;;;5064428;28;19920;-65
2023/05/13 03:12:26;;;;;;;;;;;8.10;99.90;;;;;;5063546;28;20416;-65
2023/05/13 03:14:52;;;;;;;6.22;4.60;;;8.10;99.90;;;;;;5064563;28;19917;-65
2023/05/13 03:17:17;;;;;;;;;;;8.10;99.90;;;;;;5065014;28;20167;-65
2023/05/13 03:19:43;;;;;;;8.77;4.25;;;8.10;99.90;;;;;;5064697;28;20041;-65
2023/05/13 03:22:08;;;;;;;;;;;8.00;99.90;;;;;;5064076;28;20131;-65
2023/05/13 03:24:34;;;;;;;10.73;4.32;;;8.10;99.90;;;;;;5062542;28;19920;-65
2023/05/13 03:27:00;;;;;;;9.13;5.60;;;8.00;99.90;;;;;;5064772;28;20051;-65
2023/05/13 03:29:25;;;;;;;17.70;5.45;;;8.00;99.90;;;;;;5064228;28;20044;-66
2023/05/13 03:31:52;;;;;;;;;;;8.00;99.90;;;;;;5063539;28;20056;-66
2023/05/13 03:34:18;;;;;;;7.68;4.63;;;8.00;99.90;;;;;;5060996;28;19955;-65
2023/05/13 03:36:44;;;;;;;11.38;4.88;;;8.00;99.90;;;;;;5063993;28;20059;-65
2023/05/13 03:39:09;;;;;;;;;;;8.00;99.90;;;;;;5064501;28;20036;-65
2023/05/13 03:41:35;;;;;;;9.75;4.72;;;7.90;99.90;;;;;;5055449;28;19921;-65
2023/05/13 03:44:01;;;;;;;;;;;8.00;99.90;;;;;;5059960;28;20090;-65
2023/05/13 03:46:27;;;;;;;11.18;4.22;;;7.90;99.90;;;;;;5064039;28;20338;-65
2023/05/13 03:48:54;;;;;;;7.20;4.97;;;8.00;99.90;;;;;;5063978;28;20124;-65
2023/05/13 03:51:20;;;;;;;7.60;4.88;;;7.90;99.90;;;;;;5074762;28;20055;-66
2023/05/13 03:53:46;;;;;;;7.63;5.05;;;7.90;99.90;;;;;;5077937;28;20037;-66
2023/05/13 03:56:12;;;;;;;;;;;7.90;99.90;;;;;;5069366;28;20050;-65
2023/05/13 03:58:37;;;;;;;10.80;4.88;;;7.90;99.90;;;;;;5067255;28;19924;-65
2023/05/13 04:01:03;;;;;;;7.20;4.55;;;7.90;99.90;;;;;;5059081;28;20049;-65
2023/05/13 04:03:30;;;;;;;9.45;4.63;;;7.90;99.90;;;;;;5047325;28;20146;-65
2023/05/13 04:05:55;;;;;;;8.80;5.22;;;8.00;99.90;;;;;;5047349;28;20076;-65
2023/05/13 04:08:21;;;;;;;;;;;8.00;99.90;;;;;;5048406;28;20080;-65
2023/05/13 04:10:47;;;;;;;16.70;4.50;;;8.00;99.90;;;;;;5046584;28;20636;-65
2023/05/13 04:13:12;;;;;;;11.35;4.97;;;8.00;99.90;;;;;;5045405;28;20059;-65
2023/05/13 04:15:38;;;;;;;11.75;5.68;;;8.00;99.90;;;;;;5046876;28;20044;-65
2023/05/13 04:18:03;;;;;;;;;;;8.00;99.90;;;;;;5053048;28;20036;-65
2023/05/13 04:20:29;;;;;;;7.43;4.90;;;8.20;99.90;;;;;;5054366;28;20035;-65
2023/05/13 04:22:55;;;;;;;9.93;5.28;;;8.20;99.90;;;;;;5062736;28;20039;-65
2023/05/13 04:25:20;;;;;;;7.32;4.30;;;8.20;99.90;;;;;;5047038;28;20041;-65
2023/05/13 04:27:46;;;;;;;;;;;8.20;99.90;;;;;;5046793;28;20036;-65
2023/05/13 04:30:12;;;;;;;9.35;4.72;;;8.20;99.90;;;;;;5046734;28;19924;-65
2023/05/13 04:32:38;;;;;;;10.65;4.80;;;8.20;99.90;;;;;;5065200;28;20879;-65
2023/05/13 04:35:06;;;;;;;10.85;4.45;;;8.30;99.90;;;;;;5066363;28;20036;-65
2023/05/13 04:37:32;;;;;;;8.70;4.40;;;8.40;99.90;;;;;;5066321;28;20071;-65
2023/05/13 04:39:57;;;;;;;;;;;8.40;99.90;;;;;;5066903;28;20075;-65
2023/05/13 04:42:23;;;;;;;8.77;4.68;;;8.40;99.90;;;;;;5066429;28;19999;-65
2023/05/13 04:44:48;;;;;;;13.00;5.05;;;8.50;99.90;;;;;;5062847;28;20396;-65
2023/05/13 04:47:14;;;;;;;;;;;8.60;99.90;;;;;;5065501;28;20128;-66
2023/05/13 04:49:40;;;;;;;10.23;4.50;;;8.70;99.90;;;;;;5069233;28;19931;-66
2023/05/13 04:52:05;;;;;;;;;;;8.80;99.90;;;;;;5072726;28;20045;-66
2023/05/13 04:54:34;;;;;;;8.90;5.07;;;9.00;99.90;;;;;;5064349;28;20764;-66
2023/05/13 04:57:00;;;;;;;8.13;4.18;;;9.00;99.90;;;;;;5066069;28;20059;-65
2023/05/13 04:59:26;;;;;;;10.35;4.75;;;9.00;99.90;;;;;;5066351;28;20048;-66
2023/05/13 05:01:51;;;;;;;;;;;9.00;99.90;;;;;;5064561;28;20111;-65
2023/05/13 05:04:17;;;;;;;8.10;5.07;;;9.00;99.90;;;;;;5062448;28;19916;-66
2023/05/13 05:06:43;;;;;;;;;;;9.10;99.90;;;;;;5066212;28;20044;-66
2023/05/13 05:09:08;;;;;;;7.55;4.10;;;9.20;99.90;;;;;;5066211;28;19977;-67
2023/05/13 05:11:34;;;;;;;;;;;9.30;99.90;;;;;;5065268;28;20471;-66
2023/05/13 05:14:00;;;;;;;34.78;11.60;;;9.30;99.90;;;;;;5065342;28;19923;-66
2023/05/13 05:16:25;;;;;;;20.58;8.65;;;9.30;99.90;;;;;;5065887;28;20093;-66
2023/05/13 05:18:51;;;;;;;26.42;11.00;;;9.30;99.90;;;;;;5065723;28;20503;-66
2023/05/13 05:21:20;;;;;;;;;;;9.50;99.90;;;;;;5066383;28;20037;-65
2023/05/13 05:23:45;;;;;;;17.60;7.10;;;9.70;99.90;;;;;;5066283;28;19921;-69
2023/05/13 05:26:11;;;;;;;;;;;10.00;99.90;;;;;;5066119;28;20085;-70
2023/05/13 05:28:41;;;;;;;19.83;8.13;;;10.70;99.90;;;;;;5064452;28;20324;-65
2023/05/13 05:31:08;;;;;;;20.98;7.22;;;11.60;99.90;;;;;;5055768;28;20127;-65
2023/05/13 05:33:35;;;;;;;14.75;6.20;;;12.70;99.90;;;;;;5043388;28;20439;-67
2023/05/13 05:36:01;;;;;;;21.30;6.70;;;13.50;99.90;;;;;;5044575;28;20071;-67
2023/05/13 05:38:26;;;;;;;;;;;13.90;99.90;;;;;;5057582;28;20049;-67
2023/05/13 05:40:52;;;;;;;14.65;4.75;;;14.40;99.90;;;;;;5043728;28;19967;-67
2023/05/13 05:43:20;;;;;;;;;;;14.70;99.90;;;;;;5045587;28;20044;-66
2023/05/13 05:45:46;;;;;;;5.45;3.38;;;15.30;99.90;;;;;;5045456;28;19928;-67
2023/05/13 05:48:12;;;;;;;;;;;15.70;99.90;;;;;;5044425;28;20041;-67
2023/05/13 05:50:37;;;;;;;6.85;3.45;;;15.90;99.90;;;;;;5045206;28;19923;-67
2023/05/13 05:53:05;;;;;;;4.75;3.42;;;17.00;99.90;;;;;;5052149;28;20060;-67
2023/05/13 05:55:31;;;;;;;3.67;3.08;;;17.80;99.90;;;;;;5045647;28;20090;-67
2023/05/13 05:58:02;;;;;;;;;;;18.30;99.80;;;;;;5045625;28;20802;-67
2023/05/13 06:00:28;;;;;;;9.70;3.38;;;19.00;97.60;;;;;;5044300;28;19912;-67
2023/05/13 06:02:56;;;;;;;9.48;3.10;;;19.10;95.50;;;;;;5045015;28;20033;-68
2023/05/13 06:05:22;;;;;;;8.07;3.45;;;19.50;95.10;;;;;;5046160;28;20536;-67
2023/05/13 06:07:47;;;;;;;4.35;2.42;;;20.30;95.10;;;;;;5042706;28;20128;-67
2023/05/13 06:10:13;;;;;;;10.43;3.53;;;20.70;94.10;;;;;;5044629;28;20041;-67
2023/05/13 06:12:39;;;;;;;14.40;9.32;;;19.80;94.80;;;;;;5044425;28;20588;-67
2023/05/13 06:15:09;;;;;;;8.45;4.78;;;19.40;95.90;;;;;;5044444;28;20054;-67
2023/05/13 06:17:35;;;;;;;5.93;3.58;;;18.50;95.30;;;;;;5036576;28;20187;-67
2023/05/13 06:20:02;;;;;;;6.68;2.92;;;17.60;96.80;;;;;;5052985;28;20048;-66
2023/05/13 06:22:28;;;;;;;6.78;3.55;;;17.00;98.30;;;;;;5044306;28;20579;-67
2023/05/13 06:24:53;;;;;;;;;;;16.60;99.70;;;;;;5045344;28;20041;-67
2023/05/13 06:27:19;;;;;;;7.15;3.35;;;16.30;99.60;;;;;;5044936;28;20010;-66
2023/05/13 06:29:45;;;;;;;8.45;3.92;;;15.90;99.90;;;;;;5044550;28;20048;-66
2023/05/13 06:32:10;;;;;;;;;;;15.80;99.90;;;;;;5060278;28;20040;-67
2023/05/13 06:34:38;;;;;;;8.25;3.45;;;16.10;99.90;;;;;;5064598;28;19922;-66
2023/05/13 06:37:04;;;;;;;10.32;3.70;;;16.30;99.90;;;;;;5064910;28;20060;-67
2023/05/13 06:39:30;;;;;;;;;;;16.60;99.90;;;;;;5064972;28;20036;-67
2023/05/13 06:41:55;;;;;;;5.53;3.65;;;16.80;99.90;;;;;;5064114;28;20393;-67
2023/05/13 06:44:21;;;;;;;;;;;17.10;99.90;;;;;;5063010;28;20068;-66
2023/05/13 06:46:47;;;;;;;4.30;3.28;;;17.70;99.80;;;;;;5064669;28;19920;-66
2023/05/13 06:49:13;;;;;;;12.25;3.00;;;18.30;98.80;;;;;;5066854;28;20540;-72
2023/05/13 06:51:38;;;;;;;4.88;3.75;;;18.80;98.10;;;;;;5069509;28;20539;-67
2023/05/13 06:54:04;;;;;;;6.80;3.60;;;19.40;96.50;;;;;;5062669;28;20036;-68
2023/05/13 06:56:30;;;;;;;5.18;3.33;;;20.10;95.50;;;;;;5062328;28;20044;-67
2023/05/13 06:58:55;;;;;;;6.28;3.42;;;21.20;91.50;;;;;;5064491;28;20408;-68
2023/05/13 07:01:21;;;;;;;14.20;3.60;;;22.60;90.20;;;;;;5063332;28;20551;-68
2023/05/13 07:03:47;;;;;;;10.98;3.35;;;23.60;85.90;;;;;;5064634;28;20048;-67
2023/05/13 07:06:13;;;;;;;8.13;3.63;;;24.40;81.70;;;;;;5064522;28;20071;-68
2023/05/13 07:08:39;;;;;;;8.30;2.85;;;25.40;78.70;;;;;;5064522;28;20404;-68
2023/05/13 07:11:05;;;;;;;5.28;3.13;;;25.30;74.00;;;;;;5063384;28;20046;-67
2023/05/13 07:13:33;;;;;;;7.47;3.47;;;25.90;74.00;;;;;;5062504;28;20119;-67
2023/05/13 07:15:59;;;;;;;8.30;3.08;;;26.10;67.30;;;;;;5062673;28;20045;-67
2023/05/13 07:18:25;;;;;;;7.53;2.97;;;25.50;67.80;;;;;;5062858;28;20040;-67
2023/05/13 07:20:51;;;;;;;4.28;3.15;;;25.80;70.00;;;;;;5071536;28;20047;-66
2023/05/13 07:23:17;;;;;;;5.90;3.03;;;25.30;69.00;;;;;;5065581;28;20039;-66
2023/05/13 07:25:42;;;;;;;5.15;2.65;;;24.80;68.60;;;;;;5063687;28;20036;-66
2023/05/13 07:28:08;;;;;;;7.57;2.80;;;24.70;73.10;;;;;;5066371;28;20043;-66
2023/05/13 07:30:34;;;;;;;9.35;2.83;;;24.50;71.80;;;;;;5066210;28;20037;-67
2023/05/13 07:32:59;;;;;;;8.40;2.80;;;25.10;66.30;;;;;;5066547;28;20040;-67
2023/05/13 07:35:25;;;;;;;6.03;2.58;;;25.60;66.90;;;;;;5067741;28;20489;-66
2023/05/13 07:37:51;;;;;;;6.88;2.88;;;25.70;67.60;;;;;;5065384;28;20120;-65
2023/05/13 07:40:17;;;;;;;7.85;2.58;;;26.10;67.20;;;;;;5067143;28;20040;-66
2023/05/13 07:42:43;;;;;;;6.30;2.70;;;26.20;68.30;;;;;;5067034;28;20416;-66
2023/05/13 07:45:09;;;;;;;6.35;2.35;;;26.00;63.60;;;;;;5066568;28;20107;-65
2023/05/13 07:47:35;;;;;;;3.20;2.47;;;25.40;66.90;;;;;;5066728;28;20540;-67
2023/05/13 07:50:00;;;;;;;9.25;3.10;;;25.10;66.10;;;;;;5067092;28;20047;-67
2023/05/13 07:52:26;;;;;;;6.15;3.38;;;23.90;65.70;;;;;;5066449;28;20094;-66
2023/05/13 07:54:52;;;;;;;5.93;2.80;;;22.80;69.10;;;;;;5067994;28;20044;-67
2023/05/13 07:57:18;;;;;;;8.70;3.13;;;23.10;71.90;;;;;;5068117;28;20055;-65
2023/05/13 07:59:44;;;;;;;5.47;2.80;;;24.20;67.90;;;;;;5066609;28;20098;-64
2023/05/13 08:02:10;;;;;;;7.93;3.47;;;25.30;64.00;;;;;;5065998;28;20040;-66
2023/05/13 08:04:36;;;;;;;8.95;2.70;;;26.10;61.20;;;;;;5068318;28;20037;-66
2023/05/13 08:07:02;;;;;;;4.85;3.00;;;26.60;61.00;;;;;;5067293;28;20102;-66
2023/05/13 08:09:27;;;;;;;5.13;2.33;;;27.40;60.90;;;;;;5068964;28;20090;-65
2023/05/13 08:11:53;;;;;;;6.85;2.75;;;28.20;58.40;;;;;;5066851;28;20575;-65
2023/05/13 08:14:19;;;;;;;4.35;2.78;;;28.60;55.60;;;;;;5067498;28;20805;-66
2023/05/13 08:16:45;;;;;;;6.63;2.63;;;29.40;54.80;;;;;;5067573;28;20400;-65
2023/05/13 08:19:13;;;;;;;4.25;2.40;;;29.60;57.60;;;;;;5068652;28;20073;-65
2023/05/13 08:21:38;;;;;;;5.35;2.33;;;29.90;54.30;;;;;;5063774;28;20047;-65
2023/05/13 08:24:05;;;;;;;9.50;2.80;;;29.90;56.90;;;;;;5065743;28;20040;-65
2023/05/13 08:26:31;;;;;;;7.00;2.38;;;29.10;55.50;;;;;;5067002;28;20509;-66
2023/05/13 08:28:57;;;;;;;7.75;2.83;;;29.60;55.00;;;;;;5067834;28;20086;-65
2023/05/13 08:31:24;;;;;;;5.88;2.90;;;30.10;53.90;;;;;;5065164;28;20040;-67
2023/05/13 08:33:50;;;;;;;3.60;2.55;;;29.40;51.60;;;;;;5067409;28;20775;-65
2023/05/13 08:36:16;;;;;;;10.38;2.95;;;29.40;56.40;;;;;;5067173;28;20066;-65
2023/05/13 08:38:42;;;;;;;9.18;3.15;;;27.80;55.30;;;;;;5065541;28;20484;-65
2023/05/13 08:41:13;;;;;;;7.72;3.03;;;26.60;57.50;;;;;;5066635;28;20044;-65
2023/05/13 08:43:42;;;;;;;4.50;3.17;;;25.90;59.50;;;;;;5063047;28;20040;-65
2023/05/13 08:46:11;;;;;;;5.80;3.10;;;25.70;60.30;;;;;;5048906;28;20105;-67
2023/05/13 08:48:39;;;;;;;5.82;3.50;;;25.40;59.40;;;;;;5065173;28;20127;-66
2023/05/13 08:51:05;;;;;;;6.72;2.75;;;24.90;62.60;;;;;;5065663;28;20051;-65
2023/05/13 08:53:31;;;;;;;4.18;3.22;;;24.40;66.70;;;;;;5062817;28;20123;-66
2023/05/13 08:55:58;;;;;;;4.32;3.20;;;23.40;63.80;;;;;;5065498;28;20504;-65
2023/05/13 08:58:24;;;;;;;5.78;3.60;;;22.50;67.00;;;;;;5063141;28;20052;-65
2023/05/13 09:00:51;;;;;;;6.38;3.40;;;21.70;73.10;;;;;;5059632;28;20029;-65
2023/05/13 09:03:18;;;;;;;12.75;3.40;;;21.20;73.50;;;;;;5044642;28;20041;-64
2023/05/13 09:05:44;;;;;;;6.38;3.70;;;20.90;73.10;;;;;;5045156;28;20055;-64
2023/05/13 09:08:10;;;;;;;7.93;3.63;;;20.60;75.80;;;;;;5047022;28;20393;-64
2023/05/13 09:10:38;;;;;;;6.35;3.78;;;20.40;76.50;;;;;;5046117;28;20041;-64
2023/05/13 09:13:05;;;;;;;6.43;3.85;;;20.20;77.50;;;;;;5044265;28;20091;-65
2023/05/13 09:15:31;;;;;;;8.85;3.95;;;20.10;79.70;;;;;;5046151;28;20041;-64
2023/05/13 09:18:03;;;;;;;4.90;3.53;;;20.30;80.60;;;;;;5046567;28;20080;-63
2023/05/13 09:20:29;;;;;;;6.70;3.75;;;20.10;77.50;;;;;;5044846;28;20041;-66
2023/05/13 09:23:07;;;;;;;8.60;4.13;;;20.20;76.80;;;;;;5045260;28;20068;-66
2023/05/13 09:25:33;;;;;;;10.05;3.67;;;20.20;79.30;;;;;;5044590;28;20041;-65
2023/05/13 09:28:01;;;;;;;9.75;3.92;;;20.30;76.00;;;;;;5047079;28;20135;-65
2023/05/13 09:30:28;;;;;;;6.68;3.78;;;20.30;80.20;;;;;;5044954;28;20069;-66
2023/05/13 09:33:10;;;;;;;4.68;3.47;;;20.30;74.80;;;;;;5046450;28;20128;-66
2023/05/13 09:35:39;;;;;;;9.15;3.22;;;20.30;77.60;;;;;;5045913;28;20094;-66
2023/05/13 09:38:15;;;;;;;7.72;3.28;;;20.30;77.80;;;;;;5046269;28;20049;-66
2023/05/13 09:41:01;;;;;;;7.43;3.78;;;20.00;77.40;;;;;;5045871;28;20052;-66
2023/05/13 09:43:32;;;;;;;6.25;3.85;;;19.90;75.10;;;;;;5044231;28;20055;-65
2023/05/13 09:46:01;;;;;;;13.32;3.55;;;19.70;76.00;;;;;;5042815;28;20126;-66
2023/05/13 09:48:28;;;;;;;6.90;3.40;;;19.60;71.90;;;;;;5044577;28;20045;-66
2023/05/13 09:50:56;;;;;;;9.07;3.97;;;19.50;76.70;;;;;;5042456;28;20045;-67
2023/05/13 09:53:26;;;;;;;8.70;3.38;;;19.40;77.40;;;;;;5042597;28;20122;-65
2023/05/13 09:55:55;;;;;;;5.10;3.33;;;19.30;74.70;;;;;;5042598;28;20505;-66
2023/05/13 09:58:23;;;;;;;4.00;2.90;;;19.50;74.60;;;;;;5045679;28;20495;-67
2023/05/13 10:00:50;;;;;;;5.70;3.28;;;19.60;72.40;;;;;;5040707;28;20034;-66
2023/05/13 10:03:16;;;;;;;9.18;3.72;;;19.70;72.80;;;;;;5040561;28;20037;-69
2023/05/13 10:05:42;;;;;;;6.45;3.30;;;19.70;75.10;;;;;;5045481;28;20115;-64
2023/05/13 10:08:09;;;;;;;7.35;2.50;;;19.70;73.20;;;;;;5045808;28;20607;-65
2023/05/13 10:10:35;;;;;;;4.55;2.88;;;19.60;68.60;;;;;;5044654;28;20152;-65
2023/05/13 10:13:17;;;;;;;7.28;3.13;;;19.90;70.90;;;;;;5044846;28;20493;-67
2023/05/13 10:15:50;;;;;;;5.95;3.35;;;19.90;72.40;;;;;;5044825;28;20051;-66
2023/05/13 10:18:17;;;;;;;9.88;3.25;;;19.70;70.10;;;;;;5045670;28;20041;-66
2023/05/13 10:20:43;;;;;;;8.35;3.22;;;19.60;71.40;;;;;;5044255;28;20044;-66
2023/05/13 10:23:10;;;;;;;6.85;2.97;;;19.20;74.10;;;;;;5045041;28;20453;-66
2023/05/13 10:25:36;;;;;;;11.65;3.08;;;18.90;72.90;;;;;;5045301;28;20041;-66
2023/05/13 10:28:03;;;;;;;8.25;3.20;;;18.70;73.40;;;;;;5045110;28;20049;-66
2023/05/13 10:30:31;;;;;;;8.25;2.97;;;18.80;71.30;;;;;;5044127;28;20055;-66
2023/05/13 10:32:57;;;;;;;6.05;2.45;;;18.70;73.40;;;;;;5044973;28;20049;-66
2023/05/13 10:35:28;;;;;;;6.47;3.03;;;19.00;71.60;;;;;;5044812;28;20049;-65
2023/05/13 10:38:06;;;;;;;7.82;3.05;;;19.10;72.40;;;;;;5043236;28;20094;-65
2023/05/13 10:40:41;;;;;;;4.68;2.78;;;19.30;69.90;;;;;;5043938;28;20068;-66
2023/05/13 10:43:15;;;;;;;5.40;2.50;;;19.00;69.80;;;;;;5044033;28;20936;-66
2023/05/13 10:45:49;;;;;;;3.13;2.50;;;19.30;72.70;;;;;;5037687;28;20074;-66
2023/05/13 10:48:16;;;;;;;5.68;3.00;;;19.20;71.50;;;;;;5045583;28;20045;-66
2023/05/13 10:50:55;;;;;;;5.90;2.40;;;19.20;79.70;;;;;;5044528;28;20088;-66
2023/05/13 10:53:29;;;;;;;4.53;2.53;;;19.00;71.90;;;;;;5044907;28;20099;-66
2023/05/13 10:55:56;;;;;;;6.13;2.35;;;19.00;71.00;;;;;;5043933;28;20041;-66
2023/05/13 10:58:31;;;;;;;6.85;3.00;;;19.40;69.30;;;;;;5044537;28;20047;-65
2023/05/13 11:01:17;;;;;;;4.32;2.30;;;19.20;68.60;;;;;;5041572;28;20065;-65
2023/05/13 11:03:54;;;;;;;6.53;3.13;;;18.80;67.60;;;;;;5038138;28;20045;-65
2023/05/13 11:06:41;;;;;;;5.75;2.50;;;18.90;70.70;;;;;;5044515;28;20129;-65
2023/05/13 11:09:10;;;;;;;;;;;19.10;74.20;;;;;;5043833;28;20106;-65
2023/05/13 11:11:36;;;;;;;4.63;2.35;;;19.20;70.00;;;;;;5039829;28;19924;-66
2023/05/13 11:14:05;;;;;;;;;;;19.50;73.90;;;;;;5041555;28;20404;-65
2023/05/13 11:16:31;;;;;;;4.15;2.15;;;19.50;68.00;;;;;;5043557;28;19968;-65
2023/05/13 11:18:58;;;;;;;3.20;2.00;;;19.50;61.80;;;;;;5044733;28;20052;-65
2023/05/13 11:21:37;;;;;;;9.50;2.17;;;19.50;61.20;;;;;;5044211;28;20667;-65
2023/05/13 11:24:05;;;;;;;5.15;2.30;;;19.60;67.00;;;;;;5043359;28;20045;-66
2023/05/13 11:26:57;;;;;;;4.45;2.50;;;19.90;63.80;;;;;;5043502;28;20069;-66
2023/05/13 11:29:47;;;;;;;4.63;2.17;;;20.20;58.60;;;;;;5044730;28;20076;-67
2023/05/13 11:32:13;;;;;;;7.57;1.90;;;20.10;57.30;;;;;;5035215;28;20511;-67
2023/05/13 11:34:49;;;;;;;4.53;1.90;;;19.90;60.40;;;;;;5044310;28;20045;-66
2023/05/13 11:37:16;;;;;;;6.25;2.22;;;19.70;60.40;;;;;;5044095;28;20052;-66
2023/05/13 11:39:41;;;;;;;5.93;2.80;;;19.40;62.50;;;;;;5044616;28;20850;-65
2023/05/13 11:42:08;;;;;;;;;;;19.10;63.20;;;;;;5043279;28;20069;-65
2023/05/13 11:44:34;;;;;;;9.87;2.60;;;19.00;64.00;;;;;;5043716;28;19986;-65
2023/05/13 11:47:02;;;;;;;7.47;3.20;;;18.90;66.60;;;;;;5043420;28;20098;-66
2023/05/13 11:49:37;;;;;;;6.72;2.55;;;18.90;67.20;;;;;;5032717;28;20033;-65
2023/05/13 11:52:08;;;;;;;4.78;2.80;;;19.10;70.10;;;;;;5043746;28;20091;-66
2023/05/13 11:54:47;;;;;;;4.70;2.10;;;19.40;69.30;;;;;;5044536;28;20075;-65
2023/05/13 11:57:18;;;;;;;4.13;1.52;;;19.50;62.10;;;;;;5041644;28;20045;-67
2023/05/13 11:59:50;;;;;;;3.95;1.90;;;19.10;61.90;;;;;;5042525;28;20056;-66
2023/05/13 12:02:20;;;;;;;4.35;1.65;;;18.90;64.90;;;;;;5042879;28;20068;-65
2023/05/13 12:04:45;;;;;;;4.28;1.98;;;18.70;61.40;;;;;;5044946;28;20048;-66
2023/05/13 12:07:11;;;;;;;;;;;18.50;63.50;;;;;;5043639;28;20049;-66
2023/05/13 12:09:36;;;;;;;2.63;1.80;;;18.50;64.90;;;;;;5044735;28;19924;-65
2023/05/13 12:12:03;;;;;;;5.60;1.90;;;18.30;66.60;;;;;;5043007;28;20053;-65
2023/05/13 12:14:29;;;;;;;4.07;2.03;;;18.40;66.90;;;;;;5044371;28;20507;-65
2023/05/13 12:16:56;;;;;;;3.78;1.73;;;18.50;66.40;;;;;;5047842;28;20061;-66
2023/05/13 12:19:21;;;;;;;2.80;1.83;;;18.80;66.30;;;;;;5046995;28;20048;-65
2023/05/13 12:21:48;;;;;;;;;;;19.20;70.80;;;;;;5047052;28;20033;-66
2023/05/13 12:24:19;;;;;;;4.68;1.80;;;19.40;67.20;;;;;;5045367;28;19925;-65
2023/05/13 12:26:45;;;;;;;4.55;1.48;;;19.50;67.10;;;;;;5046367;28;20045;-66
2023/05/13 12:29:10;;;;;;;;;;;19.20;68.80;;;;;;5047978;28;20852;-65
2023/05/13 12:31:36;;;;;;;4.65;1.40;;;19.00;67.90;;;;;;5044845;28;19937;-65
2023/05/13 12:34:02;;;;;;;4.72;1.70;;;18.90;67.90;;;;;;5044446;28;20120;-64
2023/05/13 12:36:35;;;;;;;;;;;18.60;68.80;;;;;;5047195;28;20132;-66
2023/05/13 12:39:02;;;;;;;4.75;1.90;;;18.20;68.60;;;;;;5045295;28;20007;-66
2023/05/13 12:41:38;;;;;;;7.18;2.03;;;18.00;70.30;;;;;;5046048;28;20048;-65
2023/05/13 12:44:07;;;;;;;4.50;2.20;;;18.10;68.90;;;;;;5041186;28;20037;-65
2023/05/13 12:46:33;;;;;;;3.80;1.77;;;18.00;71.30;;;;;;5042967;28;20055;-66
2023/05/13 12:49:01;;;;;;;2.65;1.90;;;18.20;69.60;;;;;;5034861;28;20041;-66
2023/05/13 12:51:28;;;;;;;4.65;2.10;;;18.40;72.30;;;;;;5038547;28;20036;-65
2023/05/13 12:53:54;;;;;;;4.13;2.30;;;18.60;66.80;;;;;;5044838;28;20470;-65
2023/05/13 12:56:21;;;;;;;4.63;2.30;;;18.60;68.80;;;;;;5046202;28;20048;-65
2023/05/13 12:58:48;;;;;;;3.60;2.30;;;18.70;70.30;;;;;;5046509;28;20607;-66
2023/05/13 13:01:14;;;;;;;4.28;2.58;;;18.90;68.50;;;;;;5045377;28;20065;-66
2023/05/13 13:03:39;;;;;;;;;;;19.00;68.30;;;;;;5047973;28;20559;-66
2023/05/13 13:06:05;;;;;;;6.80;2.40;;;19.10;68.00;;;;;;5047025;28;19924;-65